EDDTLPMA

Guest
Details From EDDT - Berlin Tegel
To LPMA - Madeira
Flight Number -
Tags Generated
Created
Modified
Stats Distance 1,763 nm / 3,264 km
Max Altitude 0 ft / 0 m
Waypoints 8
Social Downloads 1
Likes 0
Share VATSIM

Download

Looking for another format? Having issues loading an existing format? Contact us
Advertisement - Login to hide

Notes

Generated

Route

EDDT MASIR TY DIDRU NORAY VIS MAD LPMA

ID Type Via Altitude Latitude Longitude Leg Dist Tot Dist Heading (true) Name
O EDDT APT - 0 ft / 0 m 52.55668˚ 13.27499˚ - 0 nm - -
MASIR FIX - 0 ft / 0 m 50.25500˚ 7.73800˚ 249 nm 249 nm 239° / 234° -
TY NDB - 0 ft / 0 m 48.40028˚ 4.00389˚ 183 nm 432 nm 234° / 231° Troyes Barberey NDB
DIDRU FIX - 0 ft / 0 m 46.18167˚ 0.03111˚ 209 nm 642 nm 232° / 229° -
NORAY FIX - 0 ft / 0 m 43.50563˚ -4.10973˚ 238 nm 880 nm 229° / 226° -
VIS VOR - 0 ft / 0 m 40.72333˚ -7.88583˚ 237 nm 1118 nm 226° / 224° VISEU VOR-DME
MAD NDB - 0 ft / 0 m 32.74813˚ -16.70651˚ 639 nm 1757 nm 224° / 219° MADEIRA NDB
O LPMA APT - 0 ft / 0 m 32.68900˚ -16.78409˚ 5 nm 1762 nm 228° / 228° -

Altitude Profile

Advertisement - Login to hide

Weather


0- 5 10 15 20 25 30 35+ Temperature / ° C

Clouds and Precipitation
Forecast for 2018-05-25 06:00 UTC. Updated 2 hours ago

Ground ~20,000 ft ~40,000 ft Winds

EDDT

Details ICAO EDDT (TXL)
Name Berlin Tegel
Region Germany - Civil
Timezone Europe/Berlin (UTC+2.0)
Stats Elevation 122 ft / 37 m (AMSL)
Location 52.559100° 13.290188°
Runways 2
Magnetic Variation 3.811° E

METAR

EDDT 250720Z 07005KT 020V160 CAVOK 21/10 Q1021 NOSIG

Decode

TAF

TAF EDDT 250500Z 2506/2606 06010KT CAVOK

Decode

Departure Runways

ID Width Length Bearing (true) Bearing (mag) Surface Threshold Offset Overrun Length
08L 151 ft / 46 m 9,885 ft / 3,013 m 80.83° 77.02° Asphalt 0 ft / 0 m 226 ft / 69 m
08R 151 ft / 46 m 7,923 ft / 2,415 m 80.84° 77.03° Asphalt 341 ft / 104 m 207 ft / 63 m
26L 151 ft / 46 m 7,923 ft / 2,415 m 260.87° 257.06° Asphalt 722 ft / 220 m 157 ft / 48 m
26R 151 ft / 46 m 9,885 ft / 3,013 m 260.86° 257.05° Asphalt 0 ft / 0 m 223 ft / 68 m

LPMA

Details ICAO LPMA (FNC)
Name Madeira
Region Portugal
Timezone Atlantic/Madeira (UTC+1.0)
Stats Elevation 192 ft / 59 m (AMSL)
Location 32.697704° -16.774449°
Runways 1
Magnetic Variation 4.927° W

METAR

LPMA 250700Z 02015KT 350V050 9999 BKN015 SCT030 17/12 Q1019

Decode

TAF

TAF LPMA 250500Z 2506/2606 35008KT 9999 SCT015 TEMPO 2506/2509 VRB05KT BKN015 BECMG 2509/2511 01015KT TEMPO 2509/2606 SCT015 BKN030 PROB40 TEMPO 2511/2518 01018G28KT BECMG 2522/2524 01008KT

Decode

Destination Runways

ID Width Length Bearing (true) Bearing (mag) Surface Threshold Offset Overrun Length
05 141 ft / 43 m 8,683 ft / 2,647 m 42.98° 47.91° Asphalt 472 ft / 144 m 0 ft / 0 m
23 141 ft / 43 m 8,683 ft / 2,647 m 222.99° 227.92° Asphalt 466 ft / 142 m 0 ft / 0 m

Popular Alternatives